FNLU/LAD METAR and TAF weather

Enter ICAO airport designator
Station Type Date Time Source
FNLU METAR 2023/02/06 20:00 UTC NOAA

FNLU 062000Z 19007KT 160V220 9999 FEW020 SCT070 27/23 Q1010 NOSIG


Station Type Date Time Source
FNLU Decoded METAR 2023/02/06 20:00 UTC NOAA

Luanda, Angola (FNLU) 08-51S 013-14E 70M
Feb 06, 2023 - 03:00 PM EST / 2023.02.06 2000 UTC
Wind: from the S (190 degrees) at 8 MPH (7 KT) (direction variable):0
Visibility: greater than 7 mile(s):0
Sky conditions: partly cloudy
Temperature: 80 F (27 C)
Dew Point: 73 F (23 C)
Relative Humidity: 78%
Pressure (altimeter): 29.83 in. Hg (1010 hPa)
ob: FNLU 062000Z 19007KT 160V220 9999 FEW020 SCT070 27/23 Q1010 NOSIG
cycle: 20

Station Type Date Time Source
FNLU TAF 2023/02/06 18:31 UTC NOAA

TAF FNLU 061700Z 0618/0724 23011KT 9999 FEW020 FEW023CB BKN040
BECMG 0622/0624 BKN020 PROB40
TEMPO 0701/0705 4000 TSDZ
TEMPO 0706/0710 15004KT

Example: see airport list